sensor_id;sensor_type;location;lat;lon;timestamp;P1;durP1;ratioP1;P2;durP2;ratioP2
58992;SDS011;44782;0.000;0.000;2023-04-12T00:01:57;2.00;;;1.77;;
58992;SDS011;44782;0.000;0.000;2023-04-12T00:04:13;2.00;;;1.60;;
58992;SDS011;44782;0.000;0.000;2023-04-12T00:06:30;1.93;;;1.47;;
58992;SDS011;44782;0.000;0.000;2023-04-12T00:08:49;2.30;;;1.60;;
58992;SDS011;44782;0.000;0.000;2023-04-12T00:11:05;1.93;;;1.60;;
58992;SDS011;44782;0.000;0.000;2023-04-12T00:13:20;2.27;;;1.60;;
58992;SDS011;44782;0.000;0.000;2023-04-12T00:15:38;1.63;;;1.30;;
58992;SDS011;44782;0.000;0.000;2023-04-12T00:17:54;2.43;;;1.73;;
58992;SDS011;44782;0.000;0.000;2023-04-12T00:20:10;2.67;;;1.87;;
58992;SDS011;44782;0.000;0.000;2023-04-12T00:22:30;2.10;;;1.47;;
58992;SDS011;44782;0.000;0.000;2023-04-12T00:24:46;2.20;;;1.60;;
58992;SDS011;44782;0.000;0.000;2023-04-12T00:27:01;2.00;;;1.40;;
58992;SDS011;44782;0.000;0.000;2023-04-12T00:29:17;1.53;;;1.20;;
58992;SDS011;44782;0.000;0.000;2023-04-12T00:31:33;2.03;;;1.60;;
58992;SDS011;44782;0.000;0.000;2023-04-12T00:33:48;2.07;;;1.80;;
58992;SDS011;44782;0.000;0.000;2023-04-12T00:36:04;1.60;;;1.40;;
58992;SDS011;44782;0.000;0.000;2023-04-12T00:38:20;1.70;;;1.60;;
58992;SDS011;44782;0.000;0.000;2023-04-12T00:40:39;1.67;;;1.43;;
58992;SDS011;44782;0.000;0.000;2023-04-12T00:42:56;2.43;;;1.60;;
58992;SDS011;44782;0.000;0.000;2023-04-12T00:45:13;2.20;;;1.60;;
58992;SDS011;44782;0.000;0.000;2023-04-12T00:47:28;1.80;;;1.47;;
58992;SDS011;44782;0.000;0.000;2023-04-12T00:49:44;1.53;;;1.43;;
58992;SDS011;44782;0.000;0.000;2023-04-12T00:52:00;1.50;;;1.40;;
58992;SDS011;44782;0.000;0.000;2023-04-12T00:54:19;1.70;;;1.50;;
58992;SDS011;44782;0.000;0.000;2023-04-12T00:56:36;2.00;;;1.50;;
58992;SDS011;44782;0.000;0.000;2023-04-12T00:58:54;2.20;;;1.47;;
58992;SDS011;44782;0.000;0.000;2023-04-12T01:01:11;2.80;;;1.60;;
58992;SDS011;44782;0.000;0.000;2023-04-12T01:03:26;2.33;;;1.70;;
58992;SDS011;44782;0.000;0.000;2023-04-12T01:05:47;2.10;;;1.47;;
58992;SDS011;44782;0.000;0.000;2023-04-12T01:08:14;1.83;;;1.50;;
58992;SDS011;44782;0.000;0.000;2023-04-12T01:13:15;2.00;;;1.60;;
58992;SDS011;44782;0.000;0.000;2023-04-12T01:16:04;1.30;;;1.20;;
58992;SDS011;44782;0.000;0.000;2023-04-12T01:18:27;1.43;;;1.33;;
58992;SDS011;44782;0.000;0.000;2023-04-12T01:20:49;1.87;;;1.53;;
58992;SDS011;44782;0.000;0.000;2023-04-12T01:23:30;1.70;;;1.40;;
58992;SDS011;44782;0.000;0.000;2023-04-12T01:28:37;2.10;;;1.43;;
58992;SDS011;44782;0.000;0.000;2023-04-12T01:30:56;1.60;;;1.30;;
58992;SDS011;44782;0.000;0.000;2023-04-12T01:33:13;1.97;;;1.40;;
58992;SDS011;44782;0.000;0.000;2023-04-12T01:35:31;2.13;;;1.40;;
58992;SDS011;44782;0.000;0.000;2023-04-12T01:37:47;2.20;;;1.50;;
58992;SDS011;44782;0.000;0.000;2023-04-12T01:40:03;2.17;;;1.40;;
58992;SDS011;44782;0.000;0.000;2023-04-12T01:42:21;2.10;;;1.37;;
58992;SDS011;44782;0.000;0.000;2023-04-12T01:44:37;2.27;;;1.60;;
58992;SDS011;44782;0.000;0.000;2023-04-12T01:46:53;2.07;;;1.50;;
58992;SDS011;44782;0.000;0.000;2023-04-12T01:52:11;1.63;;;1.40;;
58992;SDS011;44782;0.000;0.000;2023-04-12T01:54:33;1.50;;;1.30;;
58992;SDS011;44782;0.000;0.000;2023-04-12T01:56:56;2.50;;;1.60;;
58992;SDS011;44782;0.000;0.000;2023-04-12T01:59:15;1.50;;;1.40;;
58992;SDS011;44782;0.000;0.000;2023-04-12T02:01:32;2.47;;;1.50;;
58992;SDS011;44782;0.000;0.000;2023-04-12T02:03:48;1.80;;;1.40;;
58992;SDS011;44782;0.000;0.000;2023-04-12T02:06:05;1.97;;;1.43;;
58992;SDS011;44782;0.000;0.000;2023-04-12T02:10:39;1.40;;;1.30;;
58992;SDS011;44782;0.000;0.000;2023-04-12T02:12:59;2.13;;;1.50;;
58992;SDS011;44782;0.000;0.000;2023-04-12T02:15:15;2.10;;;1.30;;
58992;SDS011;44782;0.000;0.000;2023-04-12T02:17:32;2.33;;;1.47;;
58992;SDS011;44782;0.000;0.000;2023-04-12T02:19:50;1.87;;;1.40;;
58992;SDS011;44782;0.000;0.000;2023-04-12T02:22:05;1.40;;;1.30;;
58992;SDS011;44782;0.000;0.000;2023-04-12T02:24:22;1.70;;;1.57;;
58992;SDS011;44782;0.000;0.000;2023-04-12T02:26:37;2.03;;;1.50;;
58992;SDS011;44782;0.000;0.000;2023-04-12T02:28:54;1.73;;;1.37;;
58992;SDS011;44782;0.000;0.000;2023-04-12T02:31:09;1.83;;;1.40;;
58992;SDS011;44782;0.000;0.000;2023-04-12T02:33:26;2.20;;;1.50;;
58992;SDS011;44782;0.000;0.000;2023-04-12T02:35:44;2.40;;;1.47;;
58992;SDS011;44782;0.000;0.000;2023-04-12T02:38:01;1.77;;;1.20;;
58992;SDS011;44782;0.000;0.000;2023-04-12T02:40:22;1.67;;;1.30;;
58992;SDS011;44782;0.000;0.000;2023-04-12T02:42:37;1.50;;;1.40;;
58992;SDS011;44782;0.000;0.000;2023-04-12T02:44:53;1.80;;;1.30;;
58992;SDS011;44782;0.000;0.000;2023-04-12T02:47:09;1.30;;;1.20;;
58992;SDS011;44782;0.000;0.000;2023-04-12T02:49:24;1.40;;;1.30;;
58992;SDS011;44782;0.000;0.000;2023-04-12T02:51:40;1.33;;;1.23;;
58992;SDS011;44782;0.000;0.000;2023-04-12T02:53:56;1.63;;;1.23;;
58992;SDS011;44782;0.000;0.000;2023-04-12T02:56:11;1.20;;;1.10;;
58992;SDS011;44782;0.000;0.000;2023-04-12T02:58:27;1.40;;;1.30;;
58992;SDS011;44782;0.000;0.000;2023-04-12T03:00:44;1.40;;;1.30;;
58992;SDS011;44782;0.000;0.000;2023-04-12T03:03:01;1.30;;;1.20;;
58992;SDS011;44782;0.000;0.000;2023-04-12T03:05:17;1.20;;;1.10;;
58992;SDS011;44782;0.000;0.000;2023-04-12T03:07:33;1.40;;;1.30;;
58992;SDS011;44782;0.000;0.000;2023-04-12T03:09:50;1.40;;;1.23;;
58992;SDS011;44782;0.000;0.000;2023-04-12T03:12:05;1.47;;;1.20;;
58992;SDS011;44782;0.000;0.000;2023-04-12T03:14:21;1.57;;;1.30;;
58992;SDS011;44782;0.000;0.000;2023-04-12T03:16:37;1.23;;;1.10;;
58992;SDS011;44782;0.000;0.000;2023-04-12T03:18:52;1.20;;;1.10;;
58992;SDS011;44782;0.000;0.000;2023-04-12T03:21:08;1.87;;;1.20;;
58992;SDS011;44782;0.000;0.000;2023-04-12T03:23:23;1.60;;;1.30;;
58992;SDS011;44782;0.000;0.000;2023-04-12T03:25:39;1.33;;;1.20;;
58992;SDS011;44782;0.000;0.000;2023-04-12T03:27:55;1.70;;;1.10;;
58992;SDS011;44782;0.000;0.000;2023-04-12T03:30:10;1.97;;;1.20;;
58992;SDS011;44782;0.000;0.000;2023-04-12T03:32:27;2.00;;;1.13;;
58992;SDS011;44782;0.000;0.000;2023-04-12T03:34:42;1.50;;;1.20;;
58992;SDS011;44782;0.000;0.000;2023-04-12T03:37:00;1.40;;;1.30;;
58992;SDS011;44782;0.000;0.000;2023-04-12T03:39:16;1.33;;;1.10;;
58992;SDS011;44782;0.000;0.000;2023-04-12T03:41:32;1.40;;;1.30;;
58992;SDS011;44782;0.000;0.000;2023-04-12T03:43:48;1.57;;;1.20;;
58992;SDS011;44782;0.000;0.000;2023-04-12T03:46:04;1.23;;;1.13;;
58992;SDS011;44782;0.000;0.000;2023-04-12T03:48:20;0.97;;;0.97;;
58992;SDS011;44782;0.000;0.000;2023-04-12T03:50:35;1.20;;;1.10;;
58992;SDS011;44782;0.000;0.000;2023-04-12T03:52:58;1.20;;;1.10;;
58992;SDS011;44782;0.000;0.000;2023-04-12T03:55:13;1.50;;;1.23;;
58992;SDS011;44782;0.000;0.000;2023-04-12T03:57:32;1.20;;;1.10;;
58992;SDS011;44782;0.000;0.000;2023-04-12T03:59:47;1.37;;;1.20;;
58992;SDS011;44782;0.000;0.000;2023-04-12T04:02:03;1.43;;;1.10;;
58992;SDS011;44782;0.000;0.000;2023-04-12T04:04:19;1.53;;;1.00;;
58992;SDS011;44782;0.000;0.000;2023-04-12T04:06:35;1.13;;;1.00;;
58992;SDS011;44782;0.000;0.000;2023-04-12T04:08:51;1.10;;;1.00;;
58992;SDS011;44782;0.000;0.000;2023-04-12T04:11:06;1.23;;;1.13;;
58992;SDS011;44782;0.000;0.000;2023-04-12T04:13:22;1.20;;;1.10;;
58992;SDS011;44782;0.000;0.000;2023-04-12T04:15:38;1.20;;;1.10;;
58992;SDS011;44782;0.000;0.000;2023-04-12T04:17:54;1.17;;;1.00;;
58992;SDS011;44782;0.000;0.000;2023-04-12T04:20:09;1.20;;;1.10;;
58992;SDS011;44782;0.000;0.000;2023-04-12T04:22:27;1.63;;;1.10;;
58992;SDS011;44782;0.000;0.000;2023-04-12T04:24:43;1.27;;;1.00;;
58992;SDS011;44782;0.000;0.000;2023-04-12T04:26:59;1.10;;;1.00;;
58992;SDS011;44782;0.000;0.000;2023-04-12T04:29:14;1.30;;;1.10;;
58992;SDS011;44782;0.000;0.000;2023-04-12T04:31:30;0.90;;;0.90;;
58992;SDS011;44782;0.000;0.000;2023-04-12T04:33:50;1.33;;;1.00;;
58992;SDS011;44782;0.000;0.000;2023-04-12T04:36:05;0.90;;;0.90;;
58992;SDS011;44782;0.000;0.000;2023-04-12T04:38:23;1.10;;;1.00;;
58992;SDS011;44782;0.000;0.000;2023-04-12T04:40:40;0.77;;;0.73;;
58992;SDS011;44782;0.000;0.000;2023-04-12T04:42:55;1.17;;;1.07;;
58992;SDS011;44782;0.000;0.000;2023-04-12T04:45:11;0.90;;;0.90;;
58992;SDS011;44782;0.000;0.000;2023-04-12T04:47:27;0.80;;;0.80;;
58992;SDS011;44782;0.000;0.000;2023-04-12T04:49:44;0.90;;;0.90;;
58992;SDS011;44782;0.000;0.000;2023-04-12T04:52:01;0.93;;;0.93;;
58992;SDS011;44782;0.000;0.000;2023-04-12T04:54:17;0.97;;;0.97;;
58992;SDS011;44782;0.000;0.000;2023-04-12T04:56:32;1.00;;;0.90;;
58992;SDS011;44782;0.000;0.000;2023-04-12T04:58:48;0.93;;;0.83;;
58992;SDS011;44782;0.000;0.000;2023-04-12T05:01:04;1.10;;;1.00;;
58992;SDS011;44782;0.000;0.000;2023-04-12T05:03:21;0.87;;;0.87;;
58992;SDS011;44782;0.000;0.000;2023-04-12T05:05:36;0.93;;;0.93;;
58992;SDS011;44782;0.000;0.000;2023-04-12T05:07:53;0.93;;;0.93;;
58992;SDS011;44782;0.000;0.000;2023-04-12T05:10:09;0.80;;;0.80;;
58992;SDS011;44782;0.000;0.000;2023-04-12T05:12:25;0.90;;;0.90;;
58992;SDS011;44782;0.000;0.000;2023-04-12T05:14:41;1.93;;;1.00;;
58992;SDS011;44782;0.000;0.000;2023-04-12T05:16:57;1.37;;;1.00;;
58992;SDS011;44782;0.000;0.000;2023-04-12T05:19:12;0.90;;;0.90;;
58992;SDS011;44782;0.000;0.000;2023-04-12T05:21:28;1.20;;;1.10;;
58992;SDS011;44782;0.000;0.000;2023-04-12T05:23:45;0.90;;;0.90;;
58992;SDS011;44782;0.000;0.000;2023-04-12T05:26:01;1.10;;;0.97;;
58992;SDS011;44782;0.000;0.000;2023-04-12T05:28:16;0.80;;;0.80;;
58992;SDS011;44782;0.000;0.000;2023-04-12T05:30:32;1.27;;;1.13;;
58992;SDS011;44782;0.000;0.000;2023-04-12T05:32:48;1.23;;;0.97;;
58992;SDS011;44782;0.000;0.000;2023-04-12T05:35:03;1.00;;;0.90;;
58992;SDS011;44782;0.000;0.000;2023-04-12T05:37:20;1.10;;;1.00;;
58992;SDS011;44782;0.000;0.000;2023-04-12T05:39:35;1.10;;;1.00;;
58992;SDS011;44782;0.000;0.000;2023-04-12T05:41:51;0.97;;;0.97;;
58992;SDS011;44782;0.000;0.000;2023-04-12T05:44:07;0.90;;;0.90;;
58992;SDS011;44782;0.000;0.000;2023-04-12T05:46:23;1.10;;;1.00;;
58992;SDS011;44782;0.000;0.000;2023-04-12T05:48:38;1.23;;;1.13;;
58992;SDS011;44782;0.000;0.000;2023-04-12T05:50:54;0.80;;;0.80;;
58992;SDS011;44782;0.000;0.000;2023-04-12T05:53:09;1.07;;;0.93;;
58992;SDS011;44782;0.000;0.000;2023-04-12T05:55:27;0.73;;;0.73;;
58992;SDS011;44782;0.000;0.000;2023-04-12T05:57:44;1.00;;;0.90;;
58992;SDS011;44782;0.000;0.000;2023-04-12T06:00:00;1.00;;;0.90;;
58992;SDS011;44782;0.000;0.000;2023-04-12T06:02:16;1.00;;;0.90;;
58992;SDS011;44782;0.000;0.000;2023-04-12T06:04:32;1.43;;;0.97;;
58992;SDS011;44782;0.000;0.000;2023-04-12T06:06:48;1.00;;;0.90;;
58992;SDS011;44782;0.000;0.000;2023-04-12T06:09:03;1.00;;;1.00;;
58992;SDS011;44782;0.000;0.000;2023-04-12T06:11:19;1.20;;;1.10;;
58992;SDS011;44782;0.000;0.000;2023-04-12T06:13:35;1.10;;;1.10;;
58992;SDS011;44782;0.000;0.000;2023-04-12T06:15:50;1.57;;;1.30;;
58992;SDS011;44782;0.000;0.000;2023-04-12T06:18:06;2.63;;;1.50;;
58992;SDS011;44782;0.000;0.000;2023-04-12T06:20:22;3.27;;;1.97;;
58992;SDS011;44782;0.000;0.000;2023-04-12T06:22:37;2.07;;;1.70;;
58992;SDS011;44782;0.000;0.000;2023-04-12T06:24:53;2.80;;;1.50;;
58992;SDS011;44782;0.000;0.000;2023-04-12T06:27:09;1.80;;;1.57;;
58992;SDS011;44782;0.000;0.000;2023-04-12T06:29:24;2.77;;;1.63;;
58992;SDS011;44782;0.000;0.000;2023-04-12T06:31:40;2.20;;;1.60;;
58992;SDS011;44782;0.000;0.000;2023-04-12T06:33:56;2.53;;;1.77;;
58992;SDS011;44782;0.000;0.000;2023-04-12T06:36:11;2.00;;;1.43;;
58992;SDS011;44782;0.000;0.000;2023-04-12T06:38:29;1.87;;;1.53;;
58992;SDS011;44782;0.000;0.000;2023-04-12T06:40:45;2.33;;;1.70;;
58992;SDS011;44782;0.000;0.000;2023-04-12T06:43:01;1.40;;;1.30;;
58992;SDS011;44782;0.000;0.000;2023-04-12T06:45:16;1.90;;;1.50;;
58992;SDS011;44782;0.000;0.000;2023-04-12T06:47:33;2.87;;;1.53;;
58992;SDS011;44782;0.000;0.000;2023-04-12T06:49:48;1.97;;;1.50;;
58992;SDS011;44782;0.000;0.000;2023-04-12T06:52:06;1.53;;;1.30;;
58992;SDS011;44782;0.000;0.000;2023-04-12T06:54:22;1.60;;;1.50;;
58992;SDS011;44782;0.000;0.000;2023-04-12T06:56:38;1.83;;;1.40;;
58992;SDS011;44782;0.000;0.000;2023-04-12T06:58:53;2.77;;;1.57;;
58992;SDS011;44782;0.000;0.000;2023-04-12T07:01:10;1.80;;;1.30;;
58992;SDS011;44782;0.000;0.000;2023-04-12T07:03:27;1.50;;;1.40;;
58992;SDS011;44782;0.000;0.000;2023-04-12T07:05:45;1.50;;;1.40;;
58992;SDS011;44782;0.000;0.000;2023-04-12T07:08:01;1.60;;;1.20;;
58992;SDS011;44782;0.000;0.000;2023-04-12T07:10:17;3.03;;;1.43;;
58992;SDS011;44782;0.000;0.000;2023-04-12T07:12:32;1.37;;;1.20;;
58992;SDS011;44782;0.000;0.000;2023-04-12T07:14:48;1.87;;;1.20;;
58992;SDS011;44782;0.000;0.000;2023-04-12T07:17:04;1.50;;;1.40;;
58992;SDS011;44782;0.000;0.000;2023-04-12T07:19:20;1.30;;;1.20;;
58992;SDS011;44782;0.000;0.000;2023-04-12T07:21:35;2.07;;;1.20;;
58992;SDS011;44782;0.000;0.000;2023-04-12T07:23:51;1.30;;;1.20;;
58992;SDS011;44782;0.000;0.000;2023-04-12T07:26:07;1.30;;;1.20;;
58992;SDS011;44782;0.000;0.000;2023-04-12T07:28:23;1.83;;;1.30;;
58992;SDS011;44782;0.000;0.000;2023-04-12T07:30:38;1.87;;;1.30;;
58992;SDS011;44782;0.000;0.000;2023-04-12T07:32:54;2.03;;;1.57;;
58992;SDS011;44782;0.000;0.000;2023-04-12T07:35:10;1.53;;;1.13;;
58992;SDS011;44782;0.000;0.000;2023-04-12T07:37:25;1.40;;;1.30;;
58992;SDS011;44782;0.000;0.000;2023-04-12T07:39:41;1.87;;;1.40;;
58992;SDS011;44782;0.000;0.000;2023-04-12T07:41:57;1.43;;;1.20;;
58992;SDS011;44782;0.000;0.000;2023-04-12T07:44:12;1.33;;;1.23;;
58992;SDS011;44782;0.000;0.000;2023-04-12T07:46:28;1.27;;;1.10;;
58992;SDS011;44782;0.000;0.000;2023-04-12T07:48:43;1.53;;;1.33;;
58992;SDS011;44782;0.000;0.000;2023-04-12T07:50:59;1.53;;;1.20;;
58992;SDS011;44782;0.000;0.000;2023-04-12T07:53:21;1.43;;;1.27;;
58992;SDS011;44782;0.000;0.000;2023-04-12T07:55:38;2.33;;;1.40;;
58992;SDS011;44782;0.000;0.000;2023-04-12T07:57:54;1.33;;;1.23;;
58992;SDS011;44782;0.000;0.000;2023-04-12T08:00:10;1.37;;;1.23;;
58992;SDS011;44782;0.000;0.000;2023-04-12T08:02:26;1.30;;;1.20;;
58992;SDS011;44782;0.000;0.000;2023-04-12T08:04:42;1.30;;;1.20;;
58992;SDS011;44782;0.000;0.000;2023-04-12T08:06:59;1.17;;;1.07;;
58992;SDS011;44782;0.000;0.000;2023-04-12T08:09:15;1.43;;;1.33;;
58992;SDS011;44782;0.000;0.000;2023-04-12T08:11:30;1.50;;;1.20;;
58992;SDS011;44782;0.000;0.000;2023-04-12T08:13:49;1.53;;;1.30;;
58992;SDS011;44782;0.000;0.000;2023-04-12T08:16:05;1.20;;;1.10;;
58992;SDS011;44782;0.000;0.000;2023-04-12T08:18:22;1.40;;;1.23;;
58992;SDS011;44782;0.000;0.000;2023-04-12T08:20:37;1.40;;;1.20;;
58992;SDS011;44782;0.000;0.000;2023-04-12T08:22:58;1.30;;;1.20;;
58992;SDS011;44782;0.000;0.000;2023-04-12T08:25:13;1.20;;;1.10;;
58992;SDS011;44782;0.000;0.000;2023-04-12T08:27:29;1.30;;;1.20;;
58992;SDS011;44782;0.000;0.000;2023-04-12T08:29:45;1.57;;;1.10;;
58992;SDS011;44782;0.000;0.000;2023-04-12T08:32:01;1.30;;;1.20;;
58992;SDS011;44782;0.000;0.000;2023-04-12T08:34:17;1.30;;;1.20;;
58992;SDS011;44782;0.000;0.000;2023-04-12T08:36:34;1.27;;;1.17;;
58992;SDS011;44782;0.000;0.000;2023-04-12T08:38:50;1.07;;;1.00;;
58992;SDS011;44782;0.000;0.000;2023-04-12T08:41:07;1.27;;;1.17;;
58992;SDS011;44782;0.000;0.000;2023-04-12T08:43:22;1.30;;;1.20;;
58992;SDS011;44782;0.000;0.000;2023-04-12T08:45:42;1.57;;;1.17;;
58992;SDS011;44782;0.000;0.000;2023-04-12T08:47:58;1.10;;;1.10;;
58992;SDS011;44782;0.000;0.000;2023-04-12T08:50:15;1.30;;;1.20;;
58992;SDS011;44782;0.000;0.000;2023-04-12T08:52:31;1.20;;;1.10;;
58992;SDS011;44782;0.000;0.000;2023-04-12T08:54:49;1.40;;;1.30;;
58992;SDS011;44782;0.000;0.000;2023-04-12T08:57:06;1.60;;;1.30;;
58992;SDS011;44782;0.000;0.000;2023-04-12T08:59:23;1.37;;;1.27;;
58992;SDS011;44782;0.000;0.000;2023-04-12T09:01:42;1.40;;;1.30;;
58992;SDS011;44782;0.000;0.000;2023-04-12T09:03:58;1.50;;;1.27;;
58992;SDS011;44782;0.000;0.000;2023-04-12T09:06:20;1.37;;;1.20;;
58992;SDS011;44782;0.000;0.000;2023-04-12T09:08:35;1.00;;;1.00;;
58992;SDS011;44782;0.000;0.000;2023-04-12T09:10:51;1.20;;;1.10;;
58992;SDS011;44782;0.000;0.000;2023-04-12T09:13:06;1.37;;;1.13;;
58992;SDS011;44782;0.000;0.000;2023-04-12T09:15:23;2.10;;;1.10;;
58992;SDS011;44782;0.000;0.000;2023-04-12T09:17:39;1.40;;;1.20;;
58992;SDS011;44782;0.000;0.000;2023-04-12T09:19:56;1.20;;;1.10;;
58992;SDS011;44782;0.000;0.000;2023-04-12T09:22:11;1.47;;;1.30;;
58992;SDS011;44782;0.000;0.000;2023-04-12T09:24:27;1.40;;;0.97;;
58992;SDS011;44782;0.000;0.000;2023-04-12T09:26:43;1.17;;;1.07;;
58992;SDS011;44782;0.000;0.000;2023-04-12T09:28:59;1.13;;;1.00;;
58992;SDS011;44782;0.000;0.000;2023-04-12T09:31:15;1.10;;;1.00;;
58992;SDS011;44782;0.000;0.000;2023-04-12T09:33:38;1.20;;;1.10;;
58992;SDS011;44782;0.000;0.000;2023-04-12T09:35:53;1.10;;;1.00;;
58992;SDS011;44782;0.000;0.000;2023-04-12T09:38:15;1.20;;;1.10;;
58992;SDS011;44782;0.000;0.000;2023-04-12T09:40:31;1.10;;;1.00;;
58992;SDS011;44782;0.000;0.000;2023-04-12T09:42:50;0.90;;;0.90;;
58992;SDS011;44782;0.000;0.000;2023-04-12T09:47:40;1.27;;;1.10;;
58992;SDS011;44782;0.000;0.000;2023-04-12T09:49:55;1.27;;;1.17;;
58992;SDS011;44782;0.000;0.000;2023-04-12T09:52:12;1.30;;;1.00;;
58992;SDS011;44782;0.000;0.000;2023-04-12T09:54:28;1.30;;;1.20;;
58992;SDS011;44782;0.000;0.000;2023-04-12T09:56:45;1.20;;;1.10;;
58992;SDS011;44782;0.000;0.000;2023-04-12T09:59:03;1.20;;;1.10;;
58992;SDS011;44782;0.000;0.000;2023-04-12T10:01:20;1.10;;;1.00;;
58992;SDS011;44782;0.000;0.000;2023-04-12T10:03:37;0.97;;;0.97;;
58992;SDS011;44782;0.000;0.000;2023-04-12T10:05:53;1.17;;;1.07;;
58992;SDS011;44782;0.000;0.000;2023-04-12T10:08:10;1.20;;;1.10;;
58992;SDS011;44782;0.000;0.000;2023-04-12T10:10:27;1.30;;;1.00;;
58992;SDS011;44782;0.000;0.000;2023-04-12T10:12:44;1.30;;;1.10;;
58992;SDS011;44782;0.000;0.000;2023-04-12T10:15:04;1.00;;;0.90;;
58992;SDS011;44782;0.000;0.000;2023-04-12T10:17:34;1.30;;;1.20;;
58992;SDS011;44782;0.000;0.000;2023-04-12T10:19:51;1.30;;;1.10;;
58992;SDS011;44782;0.000;0.000;2023-04-12T10:22:06;1.20;;;1.10;;
58992;SDS011;44782;0.000;0.000;2023-04-12T10:24:23;1.23;;;1.07;;
58992;SDS011;44782;0.000;0.000;2023-04-12T10:26:40;1.00;;;1.00;;
58992;SDS011;44782;0.000;0.000;2023-04-12T10:31:45;1.10;;;1.00;;
58992;SDS011;44782;0.000;0.000;2023-04-12T10:34:01;0.93;;;0.90;;
58992;SDS011;44782;0.000;0.000;2023-04-12T10:36:17;1.20;;;1.00;;
58992;SDS011;44782;0.000;0.000;2023-04-12T10:38:44;1.20;;;1.10;;
58992;SDS011;44782;0.000;0.000;2023-04-12T10:41:10;1.60;;;1.30;;
58992;SDS011;44782;0.000;0.000;2023-04-12T10:43:28;1.20;;;1.10;;
58992;SDS011;44782;0.000;0.000;2023-04-12T10:45:44;1.27;;;1.00;;
58992;SDS011;44782;0.000;0.000;2023-04-12T10:48:00;1.03;;;1.00;;
58992;SDS011;44782;0.000;0.000;2023-04-12T10:50:21;1.20;;;1.10;;
58992;SDS011;44782;0.000;0.000;2023-04-12T10:52:41;1.33;;;1.10;;
58992;SDS011;44782;0.000;0.000;2023-04-12T10:54:56;1.20;;;1.10;;
58992;SDS011;44782;0.000;0.000;2023-04-12T10:57:42;1.57;;;0.90;;
58992;SDS011;44782;0.000;0.000;2023-04-12T10:59:59;1.20;;;1.10;;
58992;SDS011;44782;0.000;0.000;2023-04-12T11:02:14;1.20;;;1.00;;
58992;SDS011;44782;0.000;0.000;2023-04-12T11:04:30;1.20;;;1.10;;
58992;SDS011;44782;0.000;0.000;2023-04-12T11:11:48;0.90;;;0.90;;
58992;SDS011;44782;0.000;0.000;2023-04-12T11:14:04;1.90;;;1.00;;
58992;SDS011;44782;0.000;0.000;2023-04-12T11:16:23;1.30;;;1.00;;
58992;SDS011;44782;0.000;0.000;2023-04-12T11:18:39;1.27;;;1.10;;
58992;SDS011;44782;0.000;0.000;2023-04-12T11:20:56;1.20;;;1.00;;
58992;SDS011;44782;0.000;0.000;2023-04-12T11:23:12;1.27;;;1.10;;
58992;SDS011;44782;0.000;0.000;2023-04-12T11:25:29;1.23;;;1.10;;
58992;SDS011;44782;0.000;0.000;2023-04-12T11:27:49;1.43;;;1.20;;
58992;SDS011;44782;0.000;0.000;2023-04-12T11:30:06;1.30;;;1.10;;
58992;SDS011;44782;0.000;0.000;2023-04-12T11:32:23;1.10;;;1.00;;
58992;SDS011;44782;0.000;0.000;2023-04-12T11:34:42;1.10;;;1.00;;
58992;SDS011;44782;0.000;0.000;2023-04-12T11:36:59;1.70;;;1.00;;
58992;SDS011;44782;0.000;0.000;2023-04-12T11:39:18;1.00;;;1.00;;
58992;SDS011;44782;0.000;0.000;2023-04-12T11:41:35;1.87;;;1.17;;
58992;SDS011;44782;0.000;0.000;2023-04-12T11:43:51;1.50;;;1.20;;
58992;SDS011;44782;0.000;0.000;2023-04-12T11:46:07;2.03;;;1.30;;
58992;SDS011;44782;0.000;0.000;2023-04-12T11:48:23;1.10;;;1.00;;
58992;SDS011;44782;0.000;0.000;2023-04-12T11:50:40;1.17;;;1.07;;
58992;SDS011;44782;0.000;0.000;2023-04-12T11:53:07;1.30;;;1.20;;
58992;SDS011;44782;0.000;0.000;2023-04-12T11:55:25;0.97;;;0.90;;
58992;SDS011;44782;0.000;0.000;2023-04-12T11:57:41;1.47;;;0.90;;
58992;SDS011;44782;0.000;0.000;2023-04-12T11:59:56;1.10;;;1.00;;
58992;SDS011;44782;0.000;0.000;2023-04-12T12:02:15;1.63;;;1.23;;
58992;SDS011;44782;0.000;0.000;2023-04-12T12:04:32;1.30;;;1.20;;
58992;SDS011;44782;0.000;0.000;2023-04-12T12:06:48;1.30;;;0.93;;
58992;SDS011;44782;0.000;0.000;2023-04-12T12:09:04;1.17;;;1.07;;
58992;SDS011;44782;0.000;0.000;2023-04-12T12:11:20;1.03;;;1.03;;
58992;SDS011;44782;0.000;0.000;2023-04-12T12:16:05;1.17;;;1.07;;
58992;SDS011;44782;0.000;0.000;2023-04-12T12:18:24;1.00;;;0.90;;
58992;SDS011;44782;0.000;0.000;2023-04-12T12:20:51;1.50;;;1.10;;
58992;SDS011;44782;0.000;0.000;2023-04-12T12:23:07;1.37;;;1.10;;
58992;SDS011;44782;0.000;0.000;2023-04-12T12:25:23;1.30;;;1.20;;
58992;SDS011;44782;0.000;0.000;2023-04-12T12:27:39;0.90;;;0.90;;
58992;SDS011;44782;0.000;0.000;2023-04-12T12:29:58;1.13;;;1.00;;
58992;SDS011;44782;0.000;0.000;2023-04-12T12:32:21;1.10;;;0.97;;
58992;SDS011;44782;0.000;0.000;2023-04-12T12:34:37;1.20;;;1.10;;
58992;SDS011;44782;0.000;0.000;2023-04-12T12:36:54;1.13;;;1.10;;
58992;SDS011;44782;0.000;0.000;2023-04-12T12:39:10;1.30;;;1.00;;
58992;SDS011;44782;0.000;0.000;2023-04-12T12:41:26;0.90;;;0.90;;
58992;SDS011;44782;0.000;0.000;2023-04-12T12:43:43;1.20;;;1.10;;
58992;SDS011;44782;0.000;0.000;2023-04-12T12:46:00;0.90;;;0.90;;
58992;SDS011;44782;0.000;0.000;2023-04-12T12:48:15;1.23;;;1.00;;
58992;SDS011;44782;0.000;0.000;2023-04-12T12:50:33;1.10;;;1.00;;
58992;SDS011;44782;0.000;0.000;2023-04-12T12:52:50;1.20;;;1.10;;
58992;SDS011;44782;0.000;0.000;2023-04-12T12:55:06;1.00;;;1.00;;
58992;SDS011;44782;0.000;0.000;2023-04-12T12:57:22;1.20;;;1.10;;
58992;SDS011;44782;0.000;0.000;2023-04-12T12:59:38;1.20;;;1.10;;
58992;SDS011;44782;0.000;0.000;2023-04-12T13:01:53;1.00;;;1.00;;
58992;SDS011;44782;0.000;0.000;2023-04-12T13:04:09;3.33;;;1.10;;
58992;SDS011;44782;0.000;0.000;2023-04-12T13:06:25;0.97;;;0.87;;
58992;SDS011;44782;0.000;0.000;2023-04-12T13:08:42;1.20;;;1.10;;
58992;SDS011;44782;0.000;0.000;2023-04-12T13:10:57;0.97;;;0.80;;
58992;SDS011;44782;0.000;0.000;2023-04-12T13:13:13;1.17;;;0.90;;
58992;SDS011;44782;0.000;0.000;2023-04-12T13:15:29;1.00;;;0.93;;
58992;SDS011;44782;0.000;0.000;2023-04-12T13:17:44;1.10;;;1.00;;
58992;SDS011;44782;0.000;0.000;2023-04-12T13:20:00;1.00;;;0.97;;
58992;SDS011;44782;0.000;0.000;2023-04-12T13:22:16;1.17;;;1.10;;
58992;SDS011;44782;0.000;0.000;2023-04-12T13:24:32;0.90;;;0.90;;
58992;SDS011;44782;0.000;0.000;2023-04-12T13:26:49;0.90;;;0.90;;
58992;SDS011;44782;0.000;0.000;2023-04-12T13:29:05;0.90;;;0.90;;
58992;SDS011;44782;0.000;0.000;2023-04-12T13:31:21;1.10;;;1.00;;
58992;SDS011;44782;0.000;0.000;2023-04-12T13:33:36;0.90;;;0.90;;
58992;SDS011;44782;0.000;0.000;2023-04-12T13:35:52;0.90;;;0.90;;
58992;SDS011;44782;0.000;0.000;2023-04-12T13:38:08;0.97;;;0.97;;
58992;SDS011;44782;0.000;0.000;2023-04-12T13:40:23;0.80;;;0.80;;
58992;SDS011;44782;0.000;0.000;2023-04-12T13:42:39;1.30;;;1.00;;
58992;SDS011;44782;0.000;0.000;2023-04-12T13:44:55;0.97;;;0.90;;
58992;SDS011;44782;0.000;0.000;2023-04-12T13:47:11;0.80;;;0.80;;
58992;SDS011;44782;0.000;0.000;2023-04-12T13:49:26;0.80;;;0.80;;
58992;SDS011;44782;0.000;0.000;2023-04-12T13:51:42;0.80;;;0.80;;
58992;SDS011;44782;0.000;0.000;2023-04-12T13:53:59;1.27;;;1.00;;
58992;SDS011;44782;0.000;0.000;2023-04-12T13:56:15;1.30;;;1.10;;
58992;SDS011;44782;0.000;0.000;2023-04-12T13:58:30;1.30;;;0.97;;
58992;SDS011;44782;0.000;0.000;2023-04-12T14:00:46;0.90;;;0.90;;
58992;SDS011;44782;0.000;0.000;2023-04-12T14:03:02;1.27;;;1.17;;
58992;SDS011;44782;0.000;0.000;2023-04-12T14:05:17;1.07;;;0.97;;
58992;SDS011;44782;0.000;0.000;2023-04-12T14:07:33;1.10;;;1.00;;
58992;SDS011;44782;0.000;0.000;2023-04-12T14:09:49;1.10;;;1.00;;
58992;SDS011;44782;0.000;0.000;2023-04-12T14:12:04;1.10;;;1.00;;
58992;SDS011;44782;0.000;0.000;2023-04-12T14:14:20;0.90;;;0.90;;
58992;SDS011;44782;0.000;0.000;2023-04-12T14:16:36;1.00;;;1.00;;
58992;SDS011;44782;0.000;0.000;2023-04-12T14:18:52;1.17;;;1.10;;
58992;SDS011;44782;0.000;0.000;2023-04-12T14:21:08;0.90;;;0.90;;